Time;durP1;ratioP1;P1;durP2;ratioP2;P2;SDS_P1;SDS_P2;PMS_P1;PMS_P2;Temp;Humidity;BMP_temperature;BMP_pressure;BME280_temperature;BME280_humidity;BME280_pressure;Samples;Min_cycle;Max_cycle;Signal;HPM_P1;HPM_P2
2021/01/07 00:01:42;;;;;;;28.42;18.17;;;7.70;99.90;;;;;;5093234;28;20474;-73
2021/01/07 00:04:08;;;;;;;31.92;18.33;;;7.70;99.90;;;;;;5092799;28;20089;-76
2021/01/07 00:06:35;;;;;;;24.75;15.80;;;7.70;99.90;;;;;;5093274;28;20098;-74
2021/01/07 00:09:01;;;;;;;22.88;14.50;;;7.70;99.90;;;;;;5093075;28;20081;-73
2021/01/07 00:11:26;;;;;;;24.02;15.82;;;7.90;99.90;;;;;;5078984;28;20028;-75
2021/01/07 00:13:53;;;;;;;28.58;16.42;;;7.70;99.90;;;;;;5074744;28;20020;-75
2021/01/07 00:16:19;;;;;;;33.70;18.38;;;7.90;99.90;;;;;;5073352;28;20053;-74
2021/01/07 00:18:45;;;;;;;37.55;22.02;;;7.80;99.90;;;;;;5092949;28;20055;-72
2021/01/07 00:21:15;;;;;;;39.83;20.60;;;7.80;99.90;;;;;;5074806;28;20038;-75
2021/01/07 00:23:41;;;;;;;44.55;25.52;;;7.90;99.90;;;;;;5092534;28;20394;-74
2021/01/07 00:26:06;;;;;;;43.67;26.75;;;7.80;99.90;;;;;;5092282;28;20032;-74
2021/01/07 00:28:32;;;;;;;40.08;25.38;;;7.80;99.90;;;;;;5101203;28;20016;-75
2021/01/07 00:30:58;;;;;;;39.15;23.83;;;7.70;99.90;;;;;;5091512;28;20056;-75
2021/01/07 00:33:24;;;;;;;38.30;20.90;;;7.80;99.90;;;;;;5093337;28;20024;-75
2021/01/07 00:35:50;;;;;;;37.38;19.98;;;7.70;99.90;;;;;;5098972;28;20103;-74
2021/01/07 00:38:16;;;;;;;35.15;20.42;;;7.80;99.90;;;;;;5092921;28;20024;-74
2021/01/07 00:40:42;;;;;;;44.35;25.30;;;7.80;99.90;;;;;;5078788;28;20024;-76
2021/01/07 00:43:07;;;;;;;44.35;24.38;;;7.80;99.90;;;;;;5093244;28;20032;-74
2021/01/07 00:45:33;;;;;;;32.70;19.88;;;7.80;99.90;;;;;;5091546;28;20501;-73
2021/01/07 00:48:00;;;;;;;23.80;16.40;;;7.70;99.90;;;;;;5092591;28;20077;-75
2021/01/07 00:50:26;;;;;;;22.83;13.95;;;7.60;99.90;;;;;;5092560;28;20558;-76
2021/01/07 00:52:52;;;;;;;26.35;15.25;;;7.60;99.90;;;;;;5080298;28;20515;-74
2021/01/07 00:55:18;;;;;;;22.70;14.73;;;7.70;99.90;;;;;;5095387;28;20024;-76
2021/01/07 00:57:44;;;;;;;17.67;10.65;;;7.70;99.90;;;;;;5096721;28;20035;-74
2021/01/07 01:00:12;;;;;;;59.03;35.10;;;7.60;99.90;;;;;;5086159;28;20032;-74
2021/01/07 01:02:38;;;;;;;73.13;45.03;;;7.70;99.90;;;;;;5092705;28;20512;-74
2021/01/07 01:05:05;;;;;;;87.10;50.67;;;7.80;99.90;;;;;;5095580;28;20020;-74
2021/01/07 01:07:30;;;;;;;61.25;38.78;;;7.80;99.90;;;;;;5081771;28;20016;-75
2021/01/07 01:09:56;;;;;;;80.10;49.55;;;7.90;99.90;;;;;;5097035;28;20031;-74
2021/01/07 01:12:22;;;;;;;50.90;32.00;;;7.80;99.90;;;;;;5097271;28;20028;-74
2021/01/07 01:14:48;;;;;;;59.95;36.03;;;7.90;99.90;;;;;;5097079;28;20030;-75
2021/01/07 01:17:14;;;;;;;43.15;28.00;;;7.90;99.90;;;;;;5096605;28;20493;-72
2021/01/07 01:19:40;;;;;;;37.65;22.23;;;7.80;99.90;;;;;;5096035;28;20032;-72
2021/01/07 01:22:06;;;;;;;36.08;22.02;;;7.90;99.90;;;;;;5096099;28;20024;-74
2021/01/07 01:24:32;;;;;;;32.03;17.45;;;7.90;99.90;;;;;;5096062;28;20031;-73
2021/01/07 01:26:59;;;;;;;28.27;16.45;;;7.80;99.90;;;;;;5095462;28;20373;-75
2021/01/07 01:29:25;;;;;;;25.23;15.77;;;7.80;99.90;;;;;;5096694;28;20038;-73
2021/01/07 01:31:52;;;;;;;20.90;13.52;;;7.90;99.90;;;;;;5096057;28;20048;-73
2021/01/07 01:34:19;;;;;;;23.20;13.82;;;7.90;99.90;;;;;;5095512;28;20127;-74
2021/01/07 01:36:45;;;;;;;20.17;11.90;;;7.90;99.90;;;;;;5095959;28;20472;-73
2021/01/07 01:39:11;;;;;;;113.28;58.17;;;7.90;99.90;;;;;;5095908;28;20028;-75
2021/01/07 01:41:45;;;;;;;13.40;7.93;;;7.70;99.90;;;;;;5095891;28;20106;-74
2021/01/07 01:44:11;;;;;;;9.52;6.32;;;7.60;99.90;;;;;;5095836;28;20020;-74
2021/01/07 01:46:38;;;;;;;14.82;9.25;;;7.40;99.90;;;;;;5095072;28;20028;-74
2021/01/07 01:49:05;;;;;;;15.20;7.57;;;7.40;99.90;;;;;;5095977;28;20024;-74
2021/01/07 01:51:32;;;;;;;10.00;7.07;;;7.30;99.90;;;;;;5096062;28;20067;-74
2021/01/07 01:53:58;;;;;;;11.85;8.57;;;7.20;99.90;;;;;;5077557;28;20032;-73
2021/01/07 01:56:24;;;;;;;12.65;8.23;;;7.10;99.90;;;;;;5095237;28;20363;-73
2021/01/07 01:58:51;;;;;;;10.68;7.05;;;7.20;99.90;;;;;;5095757;28;20085;-74
2021/01/07 02:01:20;;;;;;;12.77;7.45;;;7.10;99.90;;;;;;5094881;28;20740;-72
2021/01/07 02:03:49;;;;;;;11.40;7.30;;;7.10;99.90;;;;;;5095934;28;20077;-73
2021/01/07 02:06:19;;;;;;;13.40;7.20;;;7.10;99.90;;;;;;5079859;28;20053;-74
2021/01/07 02:08:46;;;;;;;12.63;6.93;;;7.00;99.90;;;;;;5076967;28;20119;-75
2021/01/07 02:11:16;;;;;;;12.65;7.30;;;7.00;99.90;;;;;;5095386;28;20466;-76
2021/01/07 02:13:49;;;;;;;15.60;7.97;;;6.90;99.90;;;;;;5095508;28;20534;-75
2021/01/07 02:16:22;;;;;;;12.30;7.45;;;6.90;99.90;;;;;;5092207;28;20020;-76
2021/01/07 02:18:51;;;;;;;12.27;8.23;;;6.90;99.90;;;;;;5085266;28;20035;-74
2021/01/07 02:21:17;;;;;;;13.13;7.90;;;6.90;99.90;;;;;;5077098;28;20500;-73
2021/01/07 02:23:50;;;;;;;11.05;7.13;;;6.90;99.90;;;;;;5076937;28;20024;-75
2021/01/07 02:26:21;;;;;;;11.48;7.20;;;6.80;99.90;;;;;;5094284;28;20418;-75
2021/01/07 02:28:47;;;;;;;8.50;5.18;;;6.80;99.90;;;;;;5095265;28;20458;-74
2021/01/07 02:31:14;;;;;;;6.65;3.88;;;6.80;99.90;;;;;;5094982;28;20056;-74
2021/01/07 02:33:40;;;;;;;6.75;3.15;;;6.80;99.90;;;;;;5080720;28;20024;-75
2021/01/07 02:36:06;;;;;;;8.52;2.63;;;6.70;99.90;;;;;;5094409;28;20024;-74
2021/01/07 02:38:33;;;;;;;5.93;2.88;;;6.80;99.90;;;;;;5094947;28;20106;-75
2021/01/07 02:40:59;;;;;;;7.85;3.08;;;6.70;99.90;;;;;;5095149;28;20032;-73
2021/01/07 02:43:24;;;;;;;6.57;3.47;;;6.60;99.90;;;;;;5095165;28;20101;-74
2021/01/07 02:45:50;;;;;;;4.22;3.05;;;6.40;99.90;;;;;;5080137;28;20030;-73
2021/01/07 02:48:16;;;;;;;7.18;3.53;;;6.30;99.90;;;;;;5094502;28;20059;-74
2021/01/07 02:50:42;;;;;;;5.03;3.13;;;6.20;99.90;;;;;;5094483;28;20377;-74
2021/01/07 02:53:07;;;;;;;6.13;3.35;;;6.20;99.90;;;;;;5094821;28;20036;-75
2021/01/07 02:55:33;;;;;;;5.03;3.22;;;6.20;99.90;;;;;;5094754;28;20028;-75
2021/01/07 02:57:59;;;;;;;5.65;3.28;;;6.20;99.90;;;;;;5094214;28;20424;-75
2021/01/07 03:00:25;;;;;;;7.00;4.22;;;6.10;99.90;;;;;;5076432;28;20423;-73
2021/01/07 03:02:51;;;;;;;4.57;2.85;;;6.20;99.90;;;;;;5094480;28;20024;-75
2021/01/07 03:05:17;;;;;;;4.80;3.00;;;6.10;99.90;;;;;;5094107;28;20032;-75
2021/01/07 03:07:43;;;;;;;4.88;2.67;;;6.10;99.90;;;;;;5093965;28;20359;-75
2021/01/07 03:10:10;;;;;;;5.60;2.50;;;6.10;99.90;;;;;;5094628;28;20035;-74
2021/01/07 03:12:36;;;;;;;4.78;3.33;;;6.10;99.90;;;;;;5094098;28;20023;-73
2021/01/07 03:15:03;;;;;;;5.53;3.67;;;6.10;99.90;;;;;;5076336;28;20354;-74
2021/01/07 03:17:28;;;;;;;7.68;3.40;;;6.20;99.90;;;;;;5075283;28;20472;-73
2021/01/07 03:19:54;;;;;;;6.85;3.75;;;6.10;99.90;;;;;;5093863;28;20047;-75
2021/01/07 03:22:20;;;;;;;7.97;3.97;;;6.20;99.90;;;;;;5093853;28;20050;-73
2021/01/07 03:24:46;;;;;;;4.22;3.45;;;6.10;99.90;;;;;;5093747;28;20359;-74
2021/01/07 03:27:11;;;;;;;5.35;3.58;;;6.00;99.90;;;;;;5093027;28;20161;-74
2021/01/07 03:29:37;;;;;;;4.90;3.38;;;6.00;99.90;;;;;;5094074;28;20020;-74
2021/01/07 03:32:04;;;;;;;5.13;3.58;;;5.90;99.90;;;;;;5093635;28;20218;-73
2021/01/07 03:34:29;;;;;;;5.00;3.17;;;5.90;99.90;;;;;;5093885;28;20028;-73
2021/01/07 03:36:55;;;;;;;6.43;3.63;;;6.00;99.90;;;;;;5093626;28;20035;-73
2021/01/07 03:39:21;;;;;;;4.60;3.17;;;5.80;99.90;;;;;;5093427;28;20509;-71
2021/01/07 03:41:47;;;;;;;6.63;4.38;;;5.80;99.90;;;;;;5080928;28;20417;-73
2021/01/07 03:44:13;;;;;;;6.00;4.07;;;5.80;99.90;;;;;;5092397;28;20515;-75
2021/01/07 03:46:39;;;;;;;6.05;3.78;;;5.80;99.90;;;;;;5092805;28;20070;-74
2021/01/07 03:49:05;;;;;;;7.85;4.93;;;5.90;99.90;;;;;;5093245;28;20024;-74
2021/01/07 03:51:31;;;;;;;9.68;5.70;;;5.80;99.90;;;;;;5093821;28;20028;-74
2021/01/07 03:53:57;;;;;;;8.57;5.38;;;5.80;99.90;;;;;;5093531;28;20107;-74
2021/01/07 03:56:23;;;;;;;8.50;5.30;;;5.80;99.90;;;;;;5093520;28;20806;-74
2021/01/07 03:58:49;;;;;;;8.88;4.50;;;5.80;99.90;;;;;;5093353;28;20028;-73
2021/01/07 04:01:15;;;;;;;7.25;4.68;;;5.80;99.90;;;;;;5093099;28;20462;-72
2021/01/07 04:03:41;;;;;;;7.40;4.80;;;5.70;99.90;;;;;;5082039;28;20039;-73
2021/01/07 04:06:07;;;;;;;7.47;4.72;;;5.70;99.90;;;;;;5090168;28;20405;-74
2021/01/07 04:08:33;;;;;;;8.75;6.78;;;5.60;99.90;;;;;;5092656;28;20466;-74
2021/01/07 04:10:59;;;;;;;9.48;6.13;;;5.60;99.90;;;;;;5093627;28;20462;-73
2021/01/07 04:13:25;;;;;;;9.60;6.20;;;5.60;99.90;;;;;;5093153;28;20024;-72
2021/01/07 04:15:51;;;;;;;13.75;6.95;;;5.60;99.90;;;;;;5091190;28;20016;-74
2021/01/07 04:18:16;;;;;;;11.55;7.25;;;5.60;99.90;;;;;;5089596;28;20027;-74
2021/01/07 04:20:42;;;;;;;13.52;8.05;;;5.70;99.90;;;;;;5086373;28;20037;-74
2021/01/07 04:23:08;;;;;;;11.35;8.07;;;5.60;99.90;;;;;;5087883;28;20398;-73
2021/01/07 04:25:34;;;;;;;15.13;9.02;;;5.60;99.90;;;;;;5093272;28;20373;-74
2021/01/07 04:27:59;;;;;;;14.27;8.35;;;5.50;99.90;;;;;;5091383;28;20024;-73
2021/01/07 04:30:25;;;;;;;12.23;7.53;;;5.50;99.90;;;;;;5091818;28;20131;-74
2021/01/07 04:32:51;;;;;;;19.63;9.13;;;5.60;99.90;;;;;;5086469;28;20047;-73
2021/01/07 04:35:17;;;;;;;17.02;10.57;;;5.50;99.90;;;;;;5092942;28;20056;-71
2021/01/07 04:37:43;;;;;;;14.43;9.85;;;5.60;99.90;;;;;;5092911;28;20016;-74
2021/01/07 04:40:09;;;;;;;14.98;8.57;;;5.60;99.90;;;;;;5092605;28;20023;-73
2021/01/07 04:42:35;;;;;;;14.23;9.10;;;5.50;99.90;;;;;;5074505;28;20020;-76
2021/01/07 04:45:03;;;;;;;16.98;8.75;;;5.60;99.90;;;;;;5085702;28;20451;-75
2021/01/07 04:47:29;;;;;;;18.67;9.73;;;5.60;99.90;;;;;;5073161;28;20404;-73
2021/01/07 04:49:55;;;;;;;16.35;8.77;;;5.60;99.90;;;;;;5092421;28;20020;-74
2021/01/07 04:52:22;;;;;;;15.15;10.13;;;5.50;99.90;;;;;;5074333;28;20049;-73
2021/01/07 04:54:51;;;;;;;17.90;10.30;;;5.60;99.90;;;;;;5092721;28;20115;-73
2021/01/07 04:57:17;;;;;;;15.48;8.77;;;5.60;99.90;;;;;;5092750;28;20111;-73
2021/01/07 04:59:42;;;;;;;15.32;9.02;;;5.70;99.90;;;;;;5092497;28;20181;-73
2021/01/07 05:02:08;;;;;;;10.70;7.55;;;5.60;99.90;;;;;;5092283;28;20032;-73
2021/01/07 05:04:53;;;;;;;10.57;6.40;;;5.60;99.90;;;;;;5092054;28;20040;-73
2021/01/07 05:07:23;;;;;;;15.13;8.98;;;5.60;99.90;;;;;;5091825;28;20035;-75
2021/01/07 05:10:01;;;;;;;14.10;9.60;;;5.60;99.90;;;;;;5092222;28;20012;-74
2021/01/07 05:12:27;;;;;;;12.65;8.55;;;5.50;99.90;;;;;;5092622;28;20035;-75
2021/01/07 05:14:53;;;;;;;12.50;7.82;;;5.60;99.90;;;;;;5092662;28;20103;-74
2021/01/07 05:17:18;;;;;;;13.73;9.25;;;5.60;99.90;;;;;;5092026;28;20135;-73
2021/01/07 05:19:44;;;;;;;22.17;11.95;;;5.60;99.90;;;;;;5058869;28;20039;-75
2021/01/07 05:22:10;;;;;;;16.55;9.50;;;5.60;99.90;;;;;;5055510;28;20029;-74
2021/01/07 05:24:38;;;;;;;19.42;9.35;;;5.70;99.90;;;;;;5065719;28;20024;-73
2021/01/07 05:27:10;;;;;;;14.60;9.27;;;5.60;99.90;;;;;;5092819;28;20019;-73
2021/01/07 05:29:40;;;;;;;12.32;7.65;;;5.60;99.90;;;;;;5091638;28;20117;-73
2021/01/07 05:32:08;;;;;;;23.05;12.13;;;5.50;99.90;;;;;;5090821;28;20123;-73
2021/01/07 05:34:45;;;;;;;20.70;14.25;;;5.50;99.90;;;;;;5091520;28;20471;-72
2021/01/07 05:37:16;;;;;;;20.48;12.57;;;5.50;99.90;;;;;;5092107;28;20474;-71
2021/01/07 05:39:44;;;;;;;18.50;11.30;;;5.50;99.90;;;;;;5074250;28;20047;-72
2021/01/07 05:42:11;;;;;;;11.13;7.55;;;5.50;99.90;;;;;;5077559;28;20475;-74
2021/01/07 05:44:41;;;;;;;11.48;7.07;;;5.50;99.90;;;;;;5088405;28;20166;-73
2021/01/07 05:47:07;;;;;;;13.45;8.93;;;5.50;99.90;;;;;;5074689;28;20370;-74
2021/01/07 05:49:37;;;;;;;14.93;9.07;;;5.50;99.90;;;;;;5077085;28;20020;-73
2021/01/07 05:52:07;;;;;;;10.95;8.18;;;5.50;99.90;;;;;;5094941;28;20032;-72
2021/01/07 05:54:33;;;;;;;12.07;8.43;;;5.40;99.90;;;;;;5095804;28;20020;-74
2021/01/07 05:57:04;;;;;;;12.18;8.15;;;5.40;99.90;;;;;;5094606;28;20466;-74
2021/01/07 05:59:34;;;;;;;12.18;7.47;;;5.40;99.90;;;;;;5094732;28;20028;-73
2021/01/07 06:02:04;;;;;;;14.98;8.30;;;5.50;99.90;;;;;;5095638;28;20032;-73
2021/01/07 06:04:33;;;;;;;12.70;7.88;;;5.40;99.90;;;;;;5077476;28;20024;-73
2021/01/07 06:07:00;;;;;;;13.88;8.35;;;5.30;99.90;;;;;;5095277;28;20027;-74
2021/01/07 06:09:30;;;;;;;14.80;8.35;;;5.30;99.90;;;;;;5095037;28;20027;-74
2021/01/07 06:11:59;;;;;;;12.02;7.13;;;5.20;99.90;;;;;;5093736;28;20036;-74
2021/01/07 06:14:26;;;;;;;13.38;7.63;;;5.30;99.90;;;;;;5089410;28;20470;-74
2021/01/07 06:16:56;;;;;;;14.48;8.82;;;5.30;99.90;;;;;;5079969;28;20023;-74
2021/01/07 06:19:36;;;;;;;15.48;8.48;;;5.30;99.90;;;;;;5089482;28;20024;-73
2021/01/07 06:22:11;;;;;;;18.60;8.82;;;5.30;99.90;;;;;;5083067;28;20036;-73
2021/01/07 06:24:41;;;;;;;16.65;8.77;;;5.30;99.90;;;;;;5095356;28;20107;-75
2021/01/07 06:27:25;;;;;;;14.95;8.48;;;5.30;99.90;;;;;;5064976;28;20386;-75
2021/01/07 06:29:59;;;;;;;13.73;8.68;;;5.40;99.90;;;;;;5093563;28;20462;-75
2021/01/07 06:32:30;;;;;;;16.13;9.95;;;5.30;99.90;;;;;;5085637;28;20052;-75
2021/01/07 06:34:59;;;;;;;11.45;7.95;;;5.30;99.90;;;;;;5093463;28;20027;-74
2021/01/07 06:37:37;;;;;;;12.13;7.85;;;5.30;99.90;;;;;;5090940;28;20016;-74
2021/01/07 06:40:07;;;;;;;16.98;10.43;;;5.40;99.90;;;;;;5093164;28;20050;-75
2021/01/07 06:42:38;;;;;;;13.98;9.77;;;5.30;99.90;;;;;;5092210;28;20024;-74
2021/01/07 06:45:10;;;;;;;21.52;12.32;;;5.30;99.90;;;;;;5093159;28;20028;-73
2021/01/07 06:47:41;;;;;;;17.95;11.63;;;5.20;99.90;;;;;;5093666;28;20106;-72
2021/01/07 06:50:08;;;;;;;14.90;9.45;;;5.20;99.90;;;;;;5091888;28;20024;-71
2021/01/07 06:52:42;;;;;;;15.93;10.48;;;5.20;99.90;;;;;;5092972;28;20065;-74
2021/01/07 06:55:14;;;;;;;20.75;13.65;;;5.20;99.90;;;;;;5093042;28;20031;-72
2021/01/07 06:57:46;;;;;;;24.67;14.88;;;5.10;99.90;;;;;;5092722;28;20042;-75
2021/01/07 07:00:15;;;;;;;26.45;15.30;;;5.10;99.90;;;;;;5093460;28;20028;-75
2021/01/07 07:03:03;;;;;;;26.88;14.75;;;5.00;99.90;;;;;;5086940;28;20044;-73
2021/01/07 07:05:34;;;;;;;20.33;11.07;;;6.40;99.90;;;;;;5092671;28;20054;-73
2021/01/07 07:08:13;;;;;;;18.90;11.80;;;5.10;99.90;;;;;;5094011;28;20038;-74
2021/01/07 07:10:38;;;;;;;17.65;10.52;;;5.10;99.90;;;;;;5090621;28;20036;-76
2021/01/07 07:13:18;;;;;;;16.73;9.73;;;5.10;99.90;;;;;;5089396;28;20078;-74
2021/01/07 07:15:45;;;;;;;12.43;8.25;;;5.20;99.90;;;;;;5091152;28;20427;-73
2021/01/07 07:18:11;;;;;;;12.85;8.88;;;5.30;99.90;;;;;;5090494;28;20035;-76
2021/01/07 07:20:44;;;;;;;16.50;8.73;;;5.50;99.90;;;;;;5092799;28;20040;-73
2021/01/07 07:23:19;;;;;;;18.00;11.18;;;5.70;99.90;;;;;;5074119;28;20028;-75
2021/01/07 07:25:50;;;;;;;16.08;11.23;;;5.80;99.90;;;;;;5093656;28;20042;-77
2021/01/07 07:28:22;;;;;;;29.58;17.45;;;6.00;99.90;;;;;;5093027;28;20404;-74
2021/01/07 07:30:48;;;;;;;30.13;19.70;;;6.20;99.90;;;;;;5065143;28;20437;-72
2021/01/07 07:33:36;;;;;;;35.20;19.33;;;6.30;99.90;;;;;;5090206;28;20024;-74
2021/01/07 07:36:04;;;;;;;33.15;17.30;;;6.50;99.90;;;;;;5084126;28;20538;-74
2021/01/07 07:38:32;;;;;;;47.78;22.23;;;6.70;99.90;;;;;;5091172;28;20093;-73
2021/01/07 07:41:04;;;;;;;25.48;16.35;;;6.80;99.90;;;;;;5084795;28;20036;-75
2021/01/07 07:43:31;;;;;;;28.77;16.33;;;6.70;99.90;;;;;;5092303;28;20024;-72
2021/01/07 07:45:57;;;;;;;24.08;15.50;;;6.80;99.90;;;;;;5092452;28;20034;-75
2021/01/07 07:48:25;;;;;;;25.33;14.57;;;6.80;99.90;;;;;;5087537;28;20059;-76
2021/01/07 07:51:02;;;;;;;18.33;11.65;;;6.80;99.90;;;;;;5092902;28;20024;-74
2021/01/07 07:53:28;;;;;;;29.17;12.07;;;6.90;99.90;;;;;;5093409;28;20090;-74
2021/01/07 07:55:54;;;;;;;24.73;13.93;;;7.00;99.90;;;;;;5074867;28;20028;-76
2021/01/07 07:58:19;;;;;;;26.50;17.48;;;7.20;99.90;;;;;;5091412;28;20081;-76
2021/01/07 08:00:58;;;;;;;28.58;19.80;;;7.20;99.90;;;;;;5092219;28;20554;-79
2021/01/07 08:03:29;;;;;;;33.20;19.23;;;7.30;99.90;;;;;;5087186;28;20028;-73
2021/01/07 08:05:58;;;;;;;35.72;19.67;;;7.40;99.90;;;;;;5088839;28;20028;-76
2021/01/07 08:08:33;;;;;;;31.42;15.65;;;7.30;99.90;;;;;;5090108;28;20074;-74
2021/01/07 08:11:00;;;;;;;26.00;16.10;;;7.20;99.90;;;;;;5092214;28;20363;-74
2021/01/07 08:13:30;;;;;;;35.70;18.83;;;7.20;99.90;;;;;;5091118;28;20016;-75
2021/01/07 08:15:57;;;;;;;33.45;17.27;;;7.40;99.90;;;;;;5090928;28;20068;-75
2021/01/07 08:18:24;;;;;;;34.92;18.17;;;7.50;99.90;;;;;;5087148;28;20024;-75
2021/01/07 08:20:52;;;;;;;35.45;19.38;;;7.70;99.90;;;;;;5092761;28;20458;-75
2021/01/07 08:23:20;;;;;;;31.38;18.40;;;7.80;99.90;;;;;;5085716;28;20032;-76
2021/01/07 08:25:48;;;;;;;28.75;16.30;;;7.90;99.90;;;;;;5067546;28;20469;-76
2021/01/07 08:28:35;;;;;;;27.52;17.02;;;8.00;99.90;;;;;;5091140;28;20032;-73
2021/01/07 08:31:07;;;;;;;36.15;18.63;;;8.00;99.90;;;;;;5093055;28;20486;-75
2021/01/07 08:33:34;;;;;;;20.23;11.90;;;7.90;99.90;;;;;;5093800;28;20473;-74
2021/01/07 08:36:07;;;;;;;22.38;13.30;;;7.80;99.90;;;;;;5095618;28;20020;-74
2021/01/07 08:38:35;;;;;;;22.45;13.43;;;8.20;99.90;;;;;;5091574;28;20028;-74
2021/01/07 08:41:10;;;;;;;24.25;16.42;;;8.40;99.90;;;;;;5090667;28;20040;-80
2021/01/07 08:43:37;;;;;;;30.40;17.70;;;8.40;99.90;;;;;;5092392;28;20472;-74
2021/01/07 08:46:15;;;;;;;29.65;14.48;;;8.30;99.90;;;;;;5091158;28;20073;-75
2021/01/07 08:48:42;;;;;;;26.85;14.38;;;8.30;99.90;;;;;;5092656;28;20059;-73
2021/01/07 08:51:21;;;;;;;31.40;17.63;;;8.30;99.90;;;;;;5079636;28;20024;-74
2021/01/07 08:53:51;;;;;;;22.08;12.18;;;8.30;99.90;;;;;;5066631;28;20420;-74
2021/01/07 08:56:37;;;;;;;21.63;13.00;;;8.20;99.90;;;;;;5087998;28;20025;-75
2021/01/07 08:59:40;;;;;;;31.70;15.80;;;8.20;99.90;;;;;;5061934;28;20431;-74
2021/01/07 09:02:08;;;;;;;37.97;18.92;;;8.00;99.90;;;;;;5029722;28;20033;-73
2021/01/07 09:04:43;;;;;;;31.20;15.80;;;8.00;99.90;;;;;;5029858;28;20042;-75
2021/01/07 09:07:15;;;;;;;35.65;18.42;;;8.20;99.90;;;;;;5030267;28;20053;-75
2021/01/07 09:09:40;;;;;;;34.05;18.75;;;8.20;99.90;;;;;;5028400;28;20041;-76
2021/01/07 09:12:11;;;;;;;27.20;15.68;;;8.20;99.90;;;;;;5011472;28;20040;-74
2021/01/07 09:14:43;;;;;;;29.23;15.75;;;8.50;99.90;;;;;;5030119;28;20068;-74
2021/01/07 09:17:09;;;;;;;27.40;15.93;;;8.70;99.90;;;;;;5033564;28;20048;-73
2021/01/07 09:19:35;;;;;;;34.45;16.80;;;8.80;99.90;;;;;;5032628;28;20029;-74
2021/01/07 09:22:03;;;;;;;29.67;15.32;;;8.90;99.90;;;;;;5031199;28;20041;-73
2021/01/07 09:24:34;;;;;;;19.27;12.13;;;9.10;99.90;;;;;;5033186;28;20063;-75
2021/01/07 09:27:14;;;;;;;20.50;12.95;;;9.10;99.90;;;;;;5033348;28;20025;-78
2021/01/07 09:29:40;;;;;;;20.17;12.40;;;9.10;99.90;;;;;;5032698;28;20037;-77
2021/01/07 09:32:08;;;;;;;19.08;11.77;;;9.10;99.90;;;;;;5015689;28;20054;-77
2021/01/07 09:34:34;;;;;;;23.20;14.77;;;9.20;99.90;;;;;;5034261;28;20029;-76
2021/01/07 09:37:26;;;;;;;25.45;14.57;;;9.10;99.90;;;;;;5089541;28;20046;-78
2021/01/07 09:39:54;;;;;;;29.60;16.63;;;9.30;99.90;;;;;;5091722;28;20051;-78
2021/01/07 09:42:22;;;;;;;23.92;14.20;;;9.30;99.90;;;;;;5088161;28;20032;-77
2021/01/07 09:44:48;;;;;;;18.42;11.57;;;9.40;99.90;;;;;;5067324;28;20048;-77
2021/01/07 09:47:15;;;;;;;24.77;14.30;;;9.50;99.90;;;;;;5094621;28;20043;-77
2021/01/07 09:49:41;;;;;;;23.40;14.55;;;9.60;99.90;;;;;;5076791;28;20059;-78
2021/01/07 09:52:06;;;;;;;29.00;15.27;;;9.80;99.90;;;;;;5076045;28;20063;-75
2021/01/07 09:54:33;;;;;;;32.33;16.08;;;9.90;99.90;;;;;;5076588;28;20127;-77
2021/01/07 09:57:00;;;;;;;24.33;14.75;;;10.10;99.90;;;;;;5095097;28;20020;-76
2021/01/07 09:59:31;;;;;;;17.63;10.88;;;10.30;99.90;;;;;;5093843;28;20034;-78
2021/01/07 10:01:58;;;;;;;19.15;11.18;;;10.10;99.90;;;;;;5095096;28;20055;-78
2021/01/07 10:04:24;;;;;;;20.48;13.10;;;10.20;99.90;;;;;;5094879;28;20106;-75
2021/01/07 10:06:50;;;;;;;13.60;9.40;;;10.70;99.90;;;;;;5092681;28;20142;-75
2021/01/07 10:09:17;;;;;;;15.60;8.50;;;10.60;99.90;;;;;;5092583;28;20462;-72
2021/01/07 10:11:43;;;;;;;28.83;19.48;;;11.00;99.90;;;;;;5089970;28;20469;-73
2021/01/07 10:14:09;;;;;;;16.40;9.68;;;11.00;99.90;;;;;;5093881;28;20030;-76
2021/01/07 10:16:35;;;;;;;17.05;8.68;;;11.00;99.90;;;;;;5094790;28;20035;-79
2021/01/07 10:19:01;;;;;;;22.73;9.88;;;11.10;99.90;;;;;;5094352;28;20073;-78
2021/01/07 10:21:30;;;;;;;21.30;12.55;;;10.80;99.90;;;;;;5090626;28;20116;-76
2021/01/07 10:23:56;;;;;;;24.05;14.98;;;10.80;99.90;;;;;;5075456;28;20102;-77
2021/01/07 10:26:22;;;;;;;34.67;18.77;;;10.50;99.90;;;;;;5075257;28;20020;-79
2021/01/07 10:28:49;;;;;;;32.55;17.85;;;10.60;99.90;;;;;;5075396;28;20275;-78
2021/01/07 10:31:18;;;;;;;21.83;11.65;;;10.40;99.90;;;;;;5092238;28;20527;-80
2021/01/07 10:33:46;;;;;;;17.77;10.13;;;10.40;99.90;;;;;;5093214;28;20544;-76
2021/01/07 10:36:15;;;;;;;18.63;10.80;;;10.20;99.90;;;;;;5093996;28;20090;-80
2021/01/07 10:38:45;;;;;;;25.40;13.77;;;10.30;99.90;;;;;;5092367;28;20529;-81
2021/01/07 10:41:13;;;;;;;30.48;16.90;;;10.40;99.90;;;;;;5092907;28;20032;-81
2021/01/07 10:43:40;;;;;;;29.80;15.43;;;10.50;99.90;;;;;;5093950;28;20024;-83
2021/01/07 10:46:06;;;;;;;28.30;13.10;;;10.50;99.90;;;;;;5059837;28;20469;-82
2021/01/07 10:48:35;;;;;;;22.92;11.80;;;10.30;99.90;;;;;;5094416;28;20055;-83
2021/01/07 10:51:03;;;;;;;25.30;14.88;;;10.40;99.90;;;;;;5074382;28;20024;-81
2021/01/07 10:54:03;;;;;;;26.08;12.73;;;10.50;99.90;;;;;;5075411;28;20042;-77
2021/01/07 10:57:07;;;;;;;24.73;13.05;;;10.40;99.90;;;;;;5075348;28;20035;-77
2021/01/07 11:00:05;;;;;;;18.30;11.52;;;10.40;99.90;;;;;;5060394;28;20036;-75
2021/01/07 11:03:09;;;;;;;19.40;11.57;;;10.70;99.90;;;;;;5079799;28;20055;-73
2021/01/07 11:05:41;;;;;;;24.80;14.88;;;11.00;99.90;;;;;;5090226;28;20024;-74
2021/01/07 11:08:16;;;;;;;28.05;13.43;;;11.00;99.90;;;;;;5071659;28;20454;-71
2021/01/07 11:10:50;;;;;;;19.08;11.45;;;11.20;99.90;;;;;;5092946;28;20076;-74
2021/01/07 11:13:21;;;;;;;29.75;13.80;;;11.10;99.90;;;;;;5068704;28;20539;-77
2021/01/07 11:15:52;;;;;;;24.13;13.82;;;11.40;99.90;;;;;;5092896;28;20058;-78
2021/01/07 11:18:28;;;;;;;27.73;15.85;;;11.50;99.90;;;;;;5092946;28;20028;-77
2021/01/07 11:21:03;;;;;;;24.88;13.95;;;11.40;99.90;;;;;;5092636;28;20048;-78
2021/01/07 11:23:29;;;;;;;27.60;15.38;;;11.50;99.90;;;;;;5090807;28;20065;-74
2021/01/07 11:25:55;;;;;;;26.80;15.40;;;11.70;99.90;;;;;;5089759;28;20032;-72
2021/01/07 11:28:21;;;;;;;35.30;17.00;;;11.70;99.90;;;;;;5090421;28;20024;-77
2021/01/07 11:30:48;;;;;;;34.38;18.63;;;11.70;99.90;;;;;;5090988;28;20048;-76
2021/01/07 11:33:17;;;;;;;16.48;11.50;;;11.40;99.90;;;;;;5067852;28;20048;-77
2021/01/07 11:35:45;;;;;;;27.80;14.93;;;11.20;99.90;;;;;;5090005;28;20028;-78
2021/01/07 11:38:31;;;;;;;26.58;14.43;;;11.10;99.90;;;;;;5091432;28;20085;-77
2021/01/07 11:41:13;;;;;;;25.95;16.05;;;10.90;99.90;;;;;;5087781;28;20063;-80
2021/01/07 11:44:16;;;;;;;22.70;12.93;;;10.50;99.90;;;;;;5070102;28;20085;-81
2021/01/07 11:46:48;;;;;;;36.78;18.45;;;10.30;99.90;;;;;;5089542;28;20113;-76
2021/01/07 11:49:18;;;;;;;38.63;19.02;;;10.20;99.90;;;;;;5087617;28;20480;-76
2021/01/07 11:51:50;;;;;;;33.08;16.08;;;10.00;99.90;;;;;;5073754;28;20481;-74
2021/01/07 11:54:16;;;;;;;31.27;17.08;;;10.00;99.90;;;;;;5072727;28;20053;-76
2021/01/07 11:56:44;;;;;;;39.05;21.67;;;9.90;99.90;;;;;;5089327;28;20064;-78
2021/01/07 11:59:10;;;;;;;34.53;19.10;;;9.80;99.90;;;;;;5090294;28;20063;-77
2021/01/07 12:01:37;;;;;;;26.30;16.55;;;9.80;99.90;;;;;;5091504;28;20039;-76
2021/01/07 12:04:13;;;;;;;24.60;14.80;;;9.70;99.90;;;;;;5087769;28;20480;-75
2021/01/07 12:06:52;;;;;;;28.50;17.60;;;9.60;99.90;;;;;;5087375;28;20111;-72
2021/01/07 12:09:33;;;;;;;32.83;17.40;;;9.50;99.90;;;;;;5063814;28;20378;-82
2021/01/07 12:12:06;;;;;;;39.60;19.27;;;9.50;99.90;;;;;;5090015;28;20378;-73
2021/01/07 12:14:54;;;;;;;34.58;18.98;;;9.60;99.90;;;;;;5063356;28;20359;-74
2021/01/07 12:17:19;;;;;;;30.17;15.57;;;9.60;99.90;;;;;;5087059;28;20024;-73
2021/01/07 12:19:45;;;;;;;44.67;22.92;;;9.70;99.90;;;;;;5084039;28;20135;-73
2021/01/07 12:22:15;;;;;;;51.70;26.05;;;9.80;99.90;;;;;;5088952;28;20043;-70
2021/01/07 12:24:43;;;;;;;35.45;17.70;;;9.80;99.90;;;;;;5069198;28;20066;-73
2021/01/07 12:27:10;;;;;;;35.45;19.02;;;9.80;99.90;;;;;;5085460;28;20454;-75
2021/01/07 12:29:40;;;;;;;31.77;18.38;;;9.70;99.90;;;;;;5080495;28;20021;-74
2021/01/07 12:32:20;;;;;;;45.28;24.77;;;9.80;99.90;;;;;;5081653;28;20101;-76
2021/01/07 12:35:07;;;;;;;56.42;29.58;;;9.80;99.90;;;;;;5089893;28;20081;-75
2021/01/07 12:38:10;;;;;;;42.92;20.45;;;9.80;99.90;;;;;;5086250;28;20029;-73
2021/01/07 12:40:41;;;;;;;33.60;17.20;;;9.80;99.90;;;;;;5079735;28;20037;-74
2021/01/07 12:43:08;;;;;;;39.10;22.00;;;9.80;99.90;;;;;;5084095;28;20027;-74
2021/01/07 12:45:37;;;;;;;28.38;15.82;;;9.80;99.90;;;;;;5086037;28;20028;-76
2021/01/07 12:48:03;;;;;;;61.90;29.92;;;10.00;99.90;;;;;;5067242;28;20043;-76
2021/01/07 12:50:29;;;;;;;82.15;42.42;;;10.10;99.90;;;;;;5086031;28;20028;-75
2021/01/07 12:52:56;;;;;;;99.38;48.45;;;10.20;99.90;;;;;;5070489;28;20036;-75